Time;durP1;ratioP1;P1;durP2;ratioP2;P2;SDS_P1;SDS_P2;PMS_P1;PMS_P2;Temp;Humidity;BMP_temperature;BMP_pressure;BME280_temperature;BME280_humidity;BME280_pressure;Samples;Min_cycle;Max_cycle;Signal;HPM_P1;HPM_P2
2023/08/16 00:02:14;;;;;;;9.40;8.30;;;;;;;;;;2615355;54;20467;-71
2023/08/16 00:07:44;;;;;;;9.67;8.83;;;;;;;;;;2616394;39;20716;-70
2023/08/16 00:13:13;;;;;;;9.90;8.93;;;;;;;;;;2615463;54;20745;-71
2023/08/16 00:18:43;;;;;;;15.00;9.60;;;;;;;;;;2615577;54;20391;-71
2023/08/16 00:24:13;;;;;;;9.53;8.73;;;;;;;;;;2616278;39;20478;-73
2023/08/16 00:29:42;;;;;;;13.60;9.73;;;;;;;;;;2616413;39;20733;-74
2023/08/16 00:35:12;;;;;;;9.80;8.93;;;;;;;;;;2616180;54;20347;-74
2023/08/16 00:40:47;;;;;;;10.63;9.63;;;;;;;;;;2615960;54;20371;-74
2023/08/16 00:46:17;;;;;;;11.00;8.87;;;;;;;;;;2615872;54;21420;-73
2023/08/16 00:51:46;;;;;;;10.60;9.50;;;;;;;;;;2615748;54;20442;-74
2023/08/16 00:57:16;;;;;;;15.10;9.70;;;;;;;;;;2615717;54;20394;-73
2023/08/16 01:02:46;;;;;;;12.10;9.93;;;;;;;;;;2615827;54;20395;-73
2023/08/16 01:08:15;;;;;;;13.23;10.60;;;;;;;;;;2616005;54;20415;-73
2023/08/16 01:13:51;;;;;;;10.90;9.97;;;;;;;;;;2615512;54;20383;-74
2023/08/16 01:19:28;;;;;;;10.90;9.80;;;;;;;;;;2616317;39;20771;-74
2023/08/16 01:24:57;;;;;;;11.07;9.70;;;;;;;;;;2614157;54;20498;-74
2023/08/16 01:30:27;;;;;;;9.83;8.83;;;;;;;;;;2614507;54;20442;-75
2023/08/16 01:35:56;;;;;;;10.70;9.57;;;;;;;;;;2613523;54;20399;-73
2023/08/16 01:50:54;;;;;;;10.97;9.80;;;;;;;;;;2613431;54;20383;-74
2023/08/16 02:05:41;;;;;;;15.17;9.90;;;;;;;;;;2613441;46;20370;-73
2023/08/16 02:11:10;;;;;;;12.03;9.70;;;;;;;;;;2613832;54;20388;-73
2023/08/16 02:16:39;;;;;;;11.47;10.23;;;;;;;;;;2614880;54;20426;-73
2023/08/16 02:22:10;;;;;;;11.00;9.90;;;;;;;;;;2614920;54;20355;-73
2023/08/16 02:27:40;;;;;;;10.27;9.17;;;;;;;;;;2614604;54;20415;-74
2023/08/16 02:33:09;;;;;;;10.80;9.80;;;;;;;;;;2614773;54;20451;-72
2023/08/16 02:38:39;;;;;;;10.60;9.53;;;;;;;;;;2615135;54;20382;-73
2023/08/16 02:44:08;;;;;;;11.10;9.90;;;;;;;;;;2615488;54;20395;-75
2023/08/16 02:49:38;;;;;;;10.03;9.03;;;;;;;;;;2615825;54;20395;-74
2023/08/16 02:55:08;;;;;;;11.57;9.80;;;;;;;;;;2615776;54;20394;-74
2023/08/16 03:00:38;;;;;;;15.33;8.70;;;;;;;;;;2615546;54;20539;-74
2023/08/16 03:06:08;;;;;;;11.07;10.03;;;;;;;;;;2615250;54;20383;-74
2023/08/16 03:11:37;;;;;;;11.20;9.20;;;;;;;;;;2615905;54;20471;-74
2023/08/16 03:17:07;;;;;;;12.40;10.80;;;;;;;;;;2615801;54;20407;-74
2023/08/16 03:22:37;;;;;;;14.00;10.13;;;;;;;;;;2615526;54;20394;-74
2023/08/16 03:28:06;;;;;;;15.80;13.07;;;;;;;;;;2615203;54;20391;-74
2023/08/16 03:33:36;;;;;;;12.67;11.57;;;;;;;;;;2615757;39;20779;-72
2023/08/16 03:39:06;;;;;;;16.57;13.00;;;;;;;;;;2615131;54;21208;-74
2023/08/16 03:44:36;;;;;;;27.47;12.93;;;;;;;;;;2615261;54;20370;-74
2023/08/16 03:50:06;;;;;;;14.70;11.20;;;;;;;;;;2615582;54;20480;-74
2023/08/16 03:55:35;;;;;;;13.07;11.70;;;;;;;;;;2614508;54;20403;-71
2023/08/16 04:04:40;;;;;;;12.70;11.43;;;;;;;;;;2614463;54;20446;-70
2023/08/16 04:10:11;;;;;;;15.87;11.20;;;;;;;;;;2615129;39;21234;-70
2023/08/16 04:15:41;;;;;;;11.37;10.27;;;;;;;;;;2614436;54;20390;-72
2023/08/16 04:21:11;;;;;;;10.27;9.20;;;;;;;;;;2614485;54;20398;-72
2023/08/16 04:26:42;;;;;;;10.50;9.50;;;;;;;;;;2615627;54;20463;-69
2023/08/16 04:32:11;;;;;;;14.10;10.50;;;;;;;;;;2615319;54;20788;-71
2023/08/16 04:34:56;;;;;;;13.70;10.60;;;;;;;;;;2615029;54;20388;-70
2023/08/16 04:37:22;;;;;;;11.67;10.47;;;;;;;;;;2615293;54;20423;-71
2023/08/16 04:42:52;;;;;;;14.70;10.97;;;;;;;;;;2615278;54;20383;-70
2023/08/16 04:48:22;;;;;;;12.90;10.47;;;;;;;;;;2615240;54;20371;-73
2023/08/16 04:53:51;;;;;;;14.23;9.17;;;;;;;;;;2615548;54;20519;-72
2023/08/16 04:59:21;;;;;;;11.77;10.30;;;;;;;;;;2615399;54;20363;-72
2023/08/16 05:04:50;;;;;;;13.37;11.47;;;;;;;;;;2615651;54;20347;-71
2023/08/16 05:10:20;;;;;;;11.20;10.10;;;;;;;;;;2615600;54;20483;-69
2023/08/16 05:15:50;;;;;;;12.80;8.70;;;;;;;;;;2615475;54;20403;-69
2023/08/16 05:21:20;;;;;;;11.90;9.70;;;;;;;;;;2615584;54;20371;-69
2023/08/16 05:26:49;;;;;;;14.60;9.00;;;;;;;;;;2615830;54;20411;-69
2023/08/16 05:32:18;;;;;;;8.53;7.60;;;;;;;;;;2615278;54;20398;-70
2023/08/16 05:37:48;;;;;;;13.53;7.70;;;;;;;;;;2615036;54;20877;-70
2023/08/16 05:43:18;;;;;;;10.90;9.13;;;;;;;;;;2614716;54;20386;-68
2023/08/16 05:48:48;;;;;;;11.13;9.10;;;;;;;;;;2615098;54;20363;-69
2023/08/16 05:54:17;;;;;;;12.70;10.60;;;;;;;;;;2614798;54;20464;-69
2023/08/16 05:59:47;;;;;;;40.23;12.73;;;;;;;;;;2615272;54;20363;-68
2023/08/16 06:05:16;;;;;;;13.00;11.50;;;;;;;;;;2615050;54;20470;-68
2023/08/16 06:10:46;;;;;;;18.17;11.70;;;;;;;;;;2615464;54;20390;-70
2023/08/16 06:16:17;;;;;;;11.73;10.63;;;;;;;;;;2615163;54;20416;-73
2023/08/16 06:21:46;;;;;;;19.23;11.60;;;;;;;;;;2615032;54;20896;-73
2023/08/16 06:27:16;;;;;;;13.03;11.73;;;;;;;;;;2615150;54;20401;-74
2023/08/16 06:32:46;;;;;;;11.57;10.37;;;;;;;;;;2615298;54;20976;-72
2023/08/16 06:38:15;;;;;;;10.90;9.67;;;;;;;;;;2614752;54;20394;-73
2023/08/16 06:43:45;;;;;;;9.77;8.77;;;;;;;;;;2614069;54;20929;-73
2023/08/16 06:49:15;;;;;;;10.33;8.50;;;;;;;;;;2614943;54;20498;-73
2023/08/16 06:54:44;;;;;;;11.00;9.47;;;;;;;;;;2615158;54;20367;-73
2023/08/16 07:00:17;;;;;;;9.47;8.57;;;;;;;;;;2615210;54;20399;-72
2023/08/16 07:09:24;;;;;;;13.10;10.30;;;;;;;;;;2615960;39;20769;-73
2023/08/16 07:14:54;;;;;;;10.07;9.07;;;;;;;;;;2615482;54;20435;-73
2023/08/16 07:20:23;;;;;;;11.50;8.57;;;;;;;;;;2615063;54;20387;-73
2023/08/16 07:25:56;;;;;;;11.00;9.90;;;;;;;;;;2614890;39;20741;-73
2023/08/16 07:31:26;;;;;;;10.03;9.17;;;;;;;;;;2615158;54;20412;-72
2023/08/16 07:36:55;;;;;;;10.83;8.97;;;;;;;;;;2615155;54;20419;-74
2023/08/16 07:42:25;;;;;;;11.53;8.50;;;;;;;;;;2615299;54;20390;-73
2023/08/16 07:47:54;;;;;;;9.37;8.47;;;;;;;;;;2616882;54;20379;-74
2023/08/16 07:53:24;;;;;;;7.87;7.17;;;;;;;;;;2614811;54;20407;-73
2023/08/16 07:58:53;;;;;;;8.47;7.00;;;;;;;;;;2615875;54;20976;-74
2023/08/16 08:04:23;;;;;;;7.50;6.90;;;;;;;;;;2615737;54;20386;-73
2023/08/16 08:09:53;;;;;;;7.20;6.47;;;;;;;;;;2616120;54;20503;-72
2023/08/16 08:15:22;;;;;;;6.87;6.30;;;;;;;;;;2615834;54;20350;-73
2023/08/16 08:20:52;;;;;;;8.27;7.37;;;;;;;;;;2615477;54;20348;-73
2023/08/16 08:26:22;;;;;;;7.23;6.53;;;;;;;;;;2615597;54;20449;-73
2023/08/16 08:31:55;;;;;;;10.80;8.00;;;;;;;;;;2615579;54;20858;-73
2023/08/16 08:37:24;;;;;;;9.90;9.07;;;;;;;;;;2614665;54;20447;-71
2023/08/16 08:42:55;;;;;;;8.60;7.80;;;;;;;;;;2614977;54;20500;-72
2023/08/16 08:48:25;;;;;;;8.77;8.07;;;;;;;;;;2615366;54;20374;-74
2023/08/16 08:53:55;;;;;;;8.70;7.90;;;;;;;;;;2614901;54;20395;-72
2023/08/16 08:59:26;;;;;;;8.47;7.80;;;;;;;;;;2615575;54;20355;-72
2023/08/16 09:04:56;;;;;;;8.90;8.10;;;;;;;;;;2614920;54;20387;-73
2023/08/16 09:10:26;;;;;;;9.80;8.83;;;;;;;;;;2615133;54;20945;-72
2023/08/16 09:15:55;;;;;;;11.83;8.80;;;;;;;;;;2614936;54;20953;-72
2023/08/16 09:21:28;;;;;;;9.87;8.93;;;;;;;;;;2615504;54;20387;-73
2023/08/16 09:27:00;;;;;;;11.93;11.00;;;;;;;;;;2614512;54;20352;-72
2023/08/16 09:32:33;;;;;;;12.20;11.10;;;;;;;;;;2614520;54;20406;-73
2023/08/16 09:38:03;;;;;;;13.73;12.33;;;;;;;;;;2614987;54;20415;-72
2023/08/16 09:43:33;;;;;;;15.10;13.60;;;;;;;;;;2614613;54;20518;-69
2023/08/16 09:49:03;;;;;;;15.87;14.37;;;;;;;;;;2615139;54;20953;-70
2023/08/16 09:54:32;;;;;;;16.70;15.13;;;;;;;;;;2614891;39;20922;-69
2023/08/16 10:00:06;;;;;;;18.10;16.30;;;;;;;;;;2615070;54;20447;-70
2023/08/16 10:11:44;;;;;;;17.27;15.90;;;;;;;;;;2614978;54;20402;-73
2023/08/16 10:17:15;;;;;;;17.93;16.00;;;;;;;;;;2614876;54;20387;-71
2023/08/16 10:22:50;;;;;;;20.37;16.60;;;;;;;;;;2615284;54;20366;-73
2023/08/16 10:28:21;;;;;;;18.63;16.67;;;;;;;;;;2615134;54;20377;-74
2023/08/16 10:33:53;;;;;;;16.03;14.33;;;;;;;;;;2615348;39;21080;-73
2023/08/16 10:39:24;;;;;;;18.77;16.80;;;;;;;;;;2614879;54;20450;-74
2023/08/16 10:44:54;;;;;;;19.87;18.07;;;;;;;;;;2614723;54;20355;-74
2023/08/16 10:56:38;;;;;;;19.87;17.97;;;;;;;;;;2614613;54;20363;-72
2023/08/16 11:02:14;;;;;;;21.43;18.20;;;;;;;;;;2614373;54;20363;-73
2023/08/16 11:04:57;;;;;;;21.57;19.30;;;;;;;;;;2614602;54;20392;-72
2023/08/16 11:07:23;;;;;;;20.40;18.40;;;;;;;;;;2614656;54;20387;-73
2023/08/16 11:12:53;;;;;;;17.17;15.47;;;;;;;;;;2614461;54;20419;-73
2023/08/16 11:24:30;;;;;;;23.30;15.17;;;;;;;;;;2614197;54;20339;-72
2023/08/16 11:30:00;;;;;;;15.93;13.50;;;;;;;;;;2614778;54;20355;-73
2023/08/16 11:35:29;;;;;;;17.27;15.00;;;;;;;;;;2614614;54;20382;-72
2023/08/16 11:40:59;;;;;;;15.93;14.23;;;;;;;;;;2614510;54;20370;-72
2023/08/16 11:46:29;;;;;;;16.70;14.73;;;;;;;;;;2614512;54;20359;-75
2023/08/16 11:51:59;;;;;;;17.20;15.60;;;;;;;;;;2614656;54;20387;-73
2023/08/16 11:57:29;;;;;;;14.00;12.63;;;;;;;;;;2614412;54;20364;-74
2023/08/16 12:03:04;;;;;;;14.77;13.23;;;;;;;;;;2614429;54;20387;-72
2023/08/16 12:17:58;;;;;;;13.57;12.33;;;;;;;;;;2613084;54;20452;-72
2023/08/16 12:23:27;;;;;;;12.60;11.50;;;;;;;;;;2612786;54;20408;-72
2023/08/16 12:28:56;;;;;;;13.90;12.47;;;;;;;;;;2612965;54;20504;-72
2023/08/16 12:34:25;;;;;;;15.70;13.50;;;;;;;;;;2613117;54;20994;-72
2023/08/16 12:39:54;;;;;;;15.90;14.30;;;;;;;;;;2613554;39;20789;-73
2023/08/16 12:45:24;;;;;;;13.73;12.53;;;;;;;;;;2613712;54;20415;-73
2023/08/16 12:50:53;;;;;;;14.10;12.90;;;;;;;;;;2614528;54;20516;-72
2023/08/16 12:56:23;;;;;;;12.80;11.60;;;;;;;;;;2614625;54;20387;-73
2023/08/16 13:01:52;;;;;;;13.80;12.43;;;;;;;;;;2615004;54;20374;-73
2023/08/16 13:07:22;;;;;;;13.30;12.10;;;;;;;;;;2615435;54;20439;-72
2023/08/16 13:12:52;;;;;;;13.80;12.47;;;;;;;;;;2615069;54;20477;-72
2023/08/16 13:18:21;;;;;;;11.60;10.47;;;;;;;;;;2615225;54;20994;-72
2023/08/16 13:23:52;;;;;;;12.20;10.90;;;;;;;;;;2614895;54;20411;-72
2023/08/16 13:29:21;;;;;;;11.83;10.80;;;;;;;;;;2614987;54;20384;-73
2023/08/16 13:34:51;;;;;;;10.90;10.00;;;;;;;;;;2615571;39;20748;-72
2023/08/16 13:40:21;;;;;;;11.10;10.20;;;;;;;;;;2615584;39;20766;-73
2023/08/16 13:45:50;;;;;;;11.10;10.20;;;;;;;;;;2614730;54;20363;-72
2023/08/16 13:51:20;;;;;;;10.70;9.93;;;;;;;;;;2615710;39;20742;-74
2023/08/16 13:56:50;;;;;;;11.27;10.37;;;;;;;;;;2614809;54;20378;-73
2023/08/16 14:02:20;;;;;;;10.73;9.67;;;;;;;;;;2615076;54;20407;-73
2023/08/16 14:13:57;;;;;;;10.33;9.40;;;;;;;;;;2614932;54;20398;-74
2023/08/16 14:19:27;;;;;;;10.17;9.47;;;;;;;;;;2615645;39;20965;-73
2023/08/16 14:24:56;;;;;;;10.23;9.40;;;;;;;;;;2615258;39;20942;-69
2023/08/16 14:30:26;;;;;;;12.63;11.73;;;;;;;;;;2614959;54;20402;-70
2023/08/16 14:35:55;;;;;;;11.40;10.50;;;;;;;;;;2614681;54;20402;-70
2023/08/16 14:41:25;;;;;;;11.00;10.20;;;;;;;;;;2614674;54;20386;-71
2023/08/16 14:46:54;;;;;;;11.50;10.50;;;;;;;;;;2614964;54;20407;-69
2023/08/16 14:52:24;;;;;;;10.50;9.73;;;;;;;;;;2615624;39;20757;-70
2023/08/16 14:58:01;;;;;;;11.07;10.07;;;;;;;;;;2614775;54;20435;-71
2023/08/16 15:03:31;;;;;;;10.23;9.30;;;;;;;;;;2614611;54;20362;-70
2023/08/16 15:12:42;;;;;;;10.10;9.40;;;;;;;;;;2614355;54;20391;-70
2023/08/16 15:18:12;;;;;;;10.47;9.13;;;;;;;;;;2614701;54;20383;-69
2023/08/16 15:23:43;;;;;;;10.23;9.30;;;;;;;;;;2614692;54;20523;-73
2023/08/16 15:29:12;;;;;;;8.50;7.80;;;;;;;;;;2614823;46;20422;-74
2023/08/16 15:34:42;;;;;;;8.40;7.90;;;;;;;;;;2614996;54;20379;-70
2023/08/16 15:40:12;;;;;;;9.37;8.60;;;;;;;;;;2615042;54;20391;-71
2023/08/16 15:45:41;;;;;;;9.80;9.20;;;;;;;;;;2614915;54;20362;-70
2023/08/16 15:51:11;;;;;;;9.77;9.00;;;;;;;;;;2614861;54;20400;-69
2023/08/16 15:56:40;;;;;;;10.90;9.97;;;;;;;;;;2614766;54;20375;-71
2023/08/16 16:02:10;;;;;;;10.43;9.63;;;;;;;;;;2614807;54;20410;-69
2023/08/16 16:07:40;;;;;;;9.63;8.73;;;;;;;;;;2614837;54;20371;-70
2023/08/16 16:13:09;;;;;;;8.87;8.37;;;;;;;;;;2614768;54;20409;-70
2023/08/16 16:18:39;;;;;;;10.33;7.87;;;;;;;;;;2615569;54;20566;-71
2023/08/16 16:24:09;;;;;;;9.97;9.37;;;;;;;;;;2615457;54;20932;-71
2023/08/16 16:29:39;;;;;;;9.83;9.03;;;;;;;;;;2615531;54;20380;-70
2023/08/16 16:32:24;;;;;;;9.57;8.97;;;;;;;;;;2615420;54;20384;-69
2023/08/16 16:34:50;;;;;;;12.70;8.83;;;;;;;;;;2616107;54;20499;-70
2023/08/16 16:40:19;;;;;;;9.20;8.50;;;;;;;;;;2615581;54;20399;-70
2023/08/16 16:45:49;;;;;;;9.77;9.10;;;;;;;;;;2615758;54;20367;-70
2023/08/16 16:51:19;;;;;;;8.50;7.97;;;;;;;;;;2615920;54;20407;-69
2023/08/16 16:56:49;;;;;;;8.77;7.97;;;;;;;;;;2615488;46;20385;-75
2023/08/16 17:02:18;;;;;;;12.00;9.50;;;;;;;;;;2615858;54;20380;-74
2023/08/16 17:07:48;;;;;;;8.43;7.70;;;;;;;;;;2615548;54;20382;-70
2023/08/16 17:16:59;;;;;;;9.13;8.43;;;;;;;;;;2615486;54;20410;-72
2023/08/16 17:22:36;;;;;;;8.80;8.30;;;;;;;;;;2615081;54;20407;-71
2023/08/16 17:28:06;;;;;;;8.23;7.67;;;;;;;;;;2615221;54;20427;-69
2023/08/16 17:33:36;;;;;;;8.13;7.43;;;;;;;;;;2615220;54;20479;-69
2023/08/16 17:39:08;;;;;;;8.83;8.13;;;;;;;;;;2615082;46;20402;-71
2023/08/16 17:44:38;;;;;;;10.20;7.40;;;;;;;;;;2615248;54;20483;-69
2023/08/16 17:50:08;;;;;;;8.27;7.63;;;;;;;;;;2615235;54;20375;-71
2023/08/16 17:55:38;;;;;;;8.43;7.80;;;;;;;;;;2615174;54;20386;-70
2023/08/16 18:01:10;;;;;;;8.77;8.10;;;;;;;;;;2615538;39;20756;-70
2023/08/16 18:06:39;;;;;;;8.73;8.03;;;;;;;;;;2615139;54;20371;-71
2023/08/16 18:12:09;;;;;;;8.50;7.80;;;;;;;;;;2614816;54;20394;-72
2023/08/16 18:17:39;;;;;;;9.03;8.10;;;;;;;;;;2615379;54;20441;-74
2023/08/16 18:23:08;;;;;;;7.30;6.80;;;;;;;;;;2615517;54;20408;-75
2023/08/16 18:28:38;;;;;;;8.43;7.67;;;;;;;;;;2614780;54;20451;-73
2023/08/16 18:34:08;;;;;;;10.13;8.43;;;;;;;;;;2614886;54;20379;-73
2023/08/16 18:39:37;;;;;;;9.47;7.40;;;;;;;;;;2614612;54;20386;-73
2023/08/16 18:45:07;;;;;;;7.70;7.00;;;;;;;;;;2613848;54;20414;-73
2023/08/16 18:50:36;;;;;;;9.17;8.37;;;;;;;;;;2615071;31;20856;-73
2023/08/16 18:56:06;;;;;;;8.80;8.00;;;;;;;;;;2614710;54;20390;-74
2023/08/16 19:01:36;;;;;;;13.37;7.50;;;;;;;;;;2613686;54;20654;-73
2023/08/16 19:07:05;;;;;;;7.90;7.30;;;;;;;;;;2614545;54;20467;-73
2023/08/16 19:12:35;;;;;;;8.03;6.60;;;;;;;;;;2614457;54;20383;-73
2023/08/16 19:21:48;;;;;;;7.60;7.10;;;;;;;;;;2614579;54;20463;-73
2023/08/16 19:27:18;;;;;;;8.10;7.47;;;;;;;;;;2614116;54;20514;-74
2023/08/16 19:32:47;;;;;;;8.23;7.10;;;;;;;;;;2614201;54;20391;-73
2023/08/16 19:38:17;;;;;;;8.70;8.00;;;;;;;;;;2615070;54;20375;-74
2023/08/16 19:43:47;;;;;;;7.67;6.97;;;;;;;;;;2614617;54;20940;-74
2023/08/16 19:49:16;;;;;;;7.73;7.07;;;;;;;;;;2614452;54;20412;-73
2023/08/16 19:54:46;;;;;;;7.80;7.07;;;;;;;;;;2615726;54;20386;-73
2023/08/16 20:00:18;;;;;;;10.47;6.83;;;;;;;;;;2615444;54;20475;-74
2023/08/16 20:05:51;;;;;;;10.30;6.57;;;;;;;;;;2615545;54;20391;-75
2023/08/16 20:11:20;;;;;;;6.67;6.07;;;;;;;;;;2616144;54;20953;-74
2023/08/16 20:16:50;;;;;;;8.90;8.07;;;;;;;;;;2615776;54;20414;-75
2023/08/16 20:22:19;;;;;;;7.77;7.03;;;;;;;;;;2616490;39;20481;-75
2023/08/16 20:27:49;;;;;;;7.77;6.97;;;;;;;;;;2615714;54;20386;-74
2023/08/16 20:33:19;;;;;;;10.03;7.20;;;;;;;;;;2616647;46;20446;-74
2023/08/16 20:38:48;;;;;;;8.30;7.60;;;;;;;;;;2615683;54;20423;-73
2023/08/16 20:44:18;;;;;;;7.30;6.70;;;;;;;;;;2616312;46;20844;-75
2023/08/16 20:49:48;;;;;;;6.70;6.20;;;;;;;;;;2615849;39;21112;-75
2023/08/16 20:55:18;;;;;;;6.97;6.37;;;;;;;;;;2615685;54;20392;-74
2023/08/16 21:00:47;;;;;;;8.73;6.17;;;;;;;;;;2615536;54;20391;-73
2023/08/16 21:06:17;;;;;;;8.77;6.30;;;;;;;;;;2615382;54;20467;-75
2023/08/16 21:11:47;;;;;;;6.60;6.13;;;;;;;;;;2615241;54;20491;-72
2023/08/16 21:17:16;;;;;;;6.53;6.03;;;;;;;;;;2615988;54;20391;-74
2023/08/16 21:22:46;;;;;;;7.27;6.70;;;;;;;;;;2615699;54;20420;-74
2023/08/16 21:28:15;;;;;;;7.37;6.67;;;;;;;;;;2615775;54;20378;-74
2023/08/16 21:33:45;;;;;;;7.00;6.40;;;;;;;;;;2615920;39;20750;-75
2023/08/16 21:39:15;;;;;;;6.77;6.27;;;;;;;;;;2615552;54;20358;-74
2023/08/16 21:44:44;;;;;;;7.47;6.63;;;;;;;;;;2615793;54;20446;-75
2023/08/16 21:50:14;;;;;;;6.87;6.17;;;;;;;;;;2615891;39;20718;-74
2023/08/16 21:55:44;;;;;;;6.40;5.90;;;;;;;;;;2615333;54;20383;-71
2023/08/16 22:01:13;;;;;;;6.50;6.00;;;;;;;;;;2614821;54;20477;-71
2023/08/16 22:06:43;;;;;;;6.40;5.90;;;;;;;;;;2614868;54;20379;-71
2023/08/16 22:12:13;;;;;;;7.50;5.50;;;;;;;;;;2614966;54;20399;-70
2023/08/16 22:23:50;;;;;;;9.43;5.00;;;;;;;;;;2615354;54;20459;-71
2023/08/16 22:29:19;;;;;;;5.43;4.93;;;;;;;;;;2614974;54;20491;-74
2023/08/16 22:34:50;;;;;;;9.30;6.00;;;;;;;;;;2614913;54;20398;-73
2023/08/16 22:40:20;;;;;;;6.83;5.67;;;;;;;;;;2615038;54;20374;-73
2023/08/16 22:45:49;;;;;;;7.20;4.87;;;;;;;;;;2614810;54;20363;-73
2023/08/16 22:51:19;;;;;;;7.20;5.30;;;;;;;;;;2614847;54;20355;-73
2023/08/16 22:56:48;;;;;;;8.70;5.63;;;;;;;;;;2615009;54;20479;-74
2023/08/16 23:02:18;;;;;;;7.63;6.00;;;;;;;;;;2615386;54;20937;-72
2023/08/16 23:07:48;;;;;;;8.77;5.80;;;;;;;;;;2615163;54;21112;-72
2023/08/16 23:13:18;;;;;;;10.17;5.83;;;;;;;;;;2614737;54;20403;-72
2023/08/16 23:22:22;;;;;;;12.33;7.20;;;;;;;;;;2614230;54;20403;-73
2023/08/16 23:27:52;;;;;;;10.63;6.90;;;;;;;;;;2614467;54;20387;-73
2023/08/16 23:33:21;;;;;;;12.10;7.17;;;;;;;;;;2614788;54;20387;-73
2023/08/16 23:38:51;;;;;;;11.53;6.77;;;;;;;;;;2615131;54;20985;-75
2023/08/16 23:44:21;;;;;;;9.80;6.93;;;;;;;;;;2614975;54;20419;-75
2023/08/16 23:49:50;;;;;;;10.13;7.00;;;;;;;;;;2614924;54;20351;-75
2023/08/16 23:55:20;;;;;;;10.80;8.17;;;;;;;;;;2614666;54;20379;-75
